sensor_id;sensor_type;location;lat;lon;timestamp;pressure;altitude;pressure_sealevel;temperature;humidity
23059;BME280;30585;51.502;7.218;2023-12-29T00:01:54;100056.88;;;9.88;72.90
23059;BME280;30585;51.502;7.218;2023-12-29T00:04:22;100052.81;;;9.94;72.05
23059;BME280;30585;51.502;7.218;2023-12-29T00:06:50;100042.91;;;9.94;72.48
23059;BME280;30585;51.502;7.218;2023-12-29T00:09:28;100039.59;;;10.02;71.94
23059;BME280;30585;51.502;7.218;2023-12-29T00:11:55;100052.22;;;10.02;72.24
23059;BME280;30585;51.502;7.218;2023-12-29T00:14:26;100043.16;;;10.03;72.44
23059;BME280;30585;51.502;7.218;2023-12-29T00:16:54;100013.75;;;10.00;72.41
23059;BME280;30585;51.502;7.218;2023-12-29T00:19:23;100015.34;;;9.91;72.26
23059;BME280;30585;51.502;7.218;2023-12-29T00:21:51;100044.25;;;10.00;72.23
23059;BME280;30585;51.502;7.218;2023-12-29T00:24:19;100035.44;;;9.98;72.26
23059;BME280;30585;51.502;7.218;2023-12-29T00:26:47;100020.25;;;9.97;72.20
23059;BME280;30585;51.502;7.218;2023-12-29T00:29:15;100012.75;;;10.01;72.07
23059;BME280;30585;51.502;7.218;2023-12-29T00:31:44;100020.97;;;9.99;72.35
23059;BME280;30585;51.502;7.218;2023-12-29T00:34:12;100026.00;;;10.04;72.00
23059;BME280;30585;51.502;7.218;2023-12-29T00:36:40;99956.28;;;9.54;72.57
23059;BME280;30585;51.502;7.218;2023-12-29T00:39:08;100037.75;;;10.03;72.10
23059;BME280;30585;51.502;7.218;2023-12-29T00:41:35;100029.69;;;10.03;72.21
23059;BME280;30585;51.502;7.218;2023-12-29T00:44:04;100020.13;;;9.99;72.67
23059;BME280;30585;51.502;7.218;2023-12-29T00:46:31;100038.88;;;10.00;72.29
23059;BME280;30585;51.502;7.218;2023-12-29T00:49:01;100020.97;;;9.99;72.34
23059;BME280;30585;51.502;7.218;2023-12-29T00:51:29;100017.19;;;10.02;72.61
23059;BME280;30585;51.502;7.218;2023-12-29T00:53:57;100021.97;;;9.98;72.87
23059;BME280;30585;51.502;7.218;2023-12-29T00:56:24;100002.00;;;10.01;72.20
23059;BME280;30585;51.502;7.218;2023-12-29T00:58:52;100008.22;;;10.01;72.36
23059;BME280;30585;51.502;7.218;2023-12-29T01:01:20;100013.50;;;10.03;72.53
23059;BME280;30585;51.502;7.218;2023-12-29T01:03:48;100009.09;;;10.02;72.62
23059;BME280;30585;51.502;7.218;2023-12-29T01:06:17;99997.44;;;10.01;72.26
23059;BME280;30585;51.502;7.218;2023-12-29T01:08:45;100011.91;;;10.00;72.18
23059;BME280;30585;51.502;7.218;2023-12-29T01:11:13;99983.13;;;10.01;72.69
23059;BME280;30585;51.502;7.218;2023-12-29T01:13:40;99984.22;;;9.98;72.73
23059;BME280;30585;51.502;7.218;2023-12-29T01:16:08;100002.84;;;10.01;72.45
23059;BME280;30585;51.502;7.218;2023-12-29T01:18:36;99976.75;;;10.02;72.83
23059;BME280;30585;51.502;7.218;2023-12-29T01:21:04;99983.00;;;10.02;72.72
23059;BME280;30585;51.502;7.218;2023-12-29T01:23:34;99976.88;;;10.00;72.74
23059;BME280;30585;51.502;7.218;2023-12-29T01:26:02;99983.97;;;10.01;72.59
23059;BME280;30585;51.502;7.218;2023-12-29T01:28:30;99985.69;;;10.02;72.61
23059;BME280;30585;51.502;7.218;2023-12-29T01:30:58;99977.84;;;9.99;72.51
23059;BME280;30585;51.502;7.218;2023-12-29T01:33:26;99986.28;;;9.94;73.21
23059;BME280;30585;51.502;7.218;2023-12-29T01:35:54;99966.44;;;9.95;73.31
23059;BME280;30585;51.502;7.218;2023-12-29T01:38:23;99957.66;;;9.93;73.59
23059;BME280;30585;51.502;7.218;2023-12-29T01:40:52;99919.56;;;9.76;72.99
23059;BME280;30585;51.502;7.218;2023-12-29T01:43:20;99953.72;;;9.98;72.57
23059;BME280;30585;51.502;7.218;2023-12-29T01:45:48;99965.34;;;9.98;73.19
23059;BME280;30585;51.502;7.218;2023-12-29T01:48:24;99956.41;;;9.98;72.80
23059;BME280;30585;51.502;7.218;2023-12-29T01:50:52;99968.16;;;9.97;72.87
23059;BME280;30585;51.502;7.218;2023-12-29T01:53:21;99963.06;;;9.93;73.50
23059;BME280;30585;51.502;7.218;2023-12-29T01:56:06;99959.13;;;9.86;74.99
23059;BME280;30585;51.502;7.218;2023-12-29T01:58:34;99962.78;;;9.74;75.58
23059;BME280;30585;51.502;7.218;2023-12-29T02:01:03;99960.09;;;9.63;77.21
23059;BME280;30585;51.502;7.218;2023-12-29T02:03:32;99949.78;;;9.57;76.93
23059;BME280;30585;51.502;7.218;2023-12-29T02:06:00;99943.44;;;9.47;77.59
23059;BME280;30585;51.502;7.218;2023-12-29T02:08:29;99937.53;;;9.53;78.06
23059;BME280;30585;51.502;7.218;2023-12-29T02:10:57;99947.34;;;9.54;77.28
23059;BME280;30585;51.502;7.218;2023-12-29T02:13:26;99958.13;;;9.43;78.34
23059;BME280;30585;51.502;7.218;2023-12-29T02:15:58;99951.75;;;9.44;79.35
23059;BME280;30585;51.502;7.218;2023-12-29T02:18:30;99955.78;;;9.38;79.56
23059;BME280;30585;51.502;7.218;2023-12-29T02:20:58;99964.44;;;9.31;80.87
23059;BME280;30585;51.502;7.218;2023-12-29T02:23:26;99975.84;;;9.23;82.09
23059;BME280;30585;51.502;7.218;2023-12-29T02:25:57;99989.88;;;9.15;82.68
23059;BME280;30585;51.502;7.218;2023-12-29T02:28:27;99976.25;;;9.06;83.53
23059;BME280;30585;51.502;7.218;2023-12-29T02:31:00;99960.53;;;8.88;84.43
23059;BME280;30585;51.502;7.218;2023-12-29T02:33:30;99965.06;;;8.88;85.43
23059;BME280;30585;51.502;7.218;2023-12-29T02:36:01;99971.66;;;8.84;85.29
23059;BME280;30585;51.502;7.218;2023-12-29T02:38:31;99946.94;;;8.79;86.39
23059;BME280;30585;51.502;7.218;2023-12-29T02:41:00;99954.00;;;8.69;86.70
23059;BME280;30585;51.502;7.218;2023-12-29T02:43:30;99959.13;;;8.72;86.09
23059;BME280;30585;51.502;7.218;2023-12-29T02:45:58;99956.03;;;8.65;86.81
23059;BME280;30585;51.502;7.218;2023-12-29T02:48:26;99947.97;;;8.65;86.99
23059;BME280;30585;51.502;7.218;2023-12-29T02:50:54;99951.00;;;8.61;87.78
23059;BME280;30585;51.502;7.218;2023-12-29T02:53:22;99941.22;;;8.60;88.12
23059;BME280;30585;51.502;7.218;2023-12-29T02:55:50;99954.63;;;8.48;88.84
23059;BME280;30585;51.502;7.218;2023-12-29T02:58:19;99953.88;;;8.46;88.59
23059;BME280;30585;51.502;7.218;2023-12-29T03:00:47;99943.66;;;8.51;89.02
23059;BME280;30585;51.502;7.218;2023-12-29T03:03:14;99933.56;;;8.42;89.53
23059;BME280;30585;51.502;7.218;2023-12-29T03:05:42;99927.34;;;8.42;89.48
23059;BME280;30585;51.502;7.218;2023-12-29T03:08:10;99932.81;;;8.40;89.47
23059;BME280;30585;51.502;7.218;2023-12-29T03:10:38;99938.16;;;8.53;88.22
23059;BME280;30585;51.502;7.218;2023-12-29T03:13:06;99941.19;;;8.48;88.59
23059;BME280;30585;51.502;7.218;2023-12-29T03:15:35;99884.16;;;8.32;88.21
23059;BME280;30585;51.502;7.218;2023-12-29T03:18:03;99921.41;;;8.61;87.83
23059;BME280;30585;51.502;7.218;2023-12-29T03:20:32;99930.22;;;8.63;87.26
23059;BME280;30585;51.502;7.218;2023-12-29T03:22:59;99929.38;;;8.62;87.53
23059;BME280;30585;51.502;7.218;2023-12-29T03:25:27;99935.38;;;8.66;87.41
23059;BME280;30585;51.502;7.218;2023-12-29T03:27:55;99935.16;;;8.69;87.44
23059;BME280;30585;51.502;7.218;2023-12-29T03:30:23;99930.75;;;8.68;87.38
23059;BME280;30585;51.502;7.218;2023-12-29T03:32:52;99919.31;;;8.77;86.78
23059;BME280;30585;51.502;7.218;2023-12-29T03:35:20;99921.75;;;8.80;86.13
23059;BME280;30585;51.502;7.218;2023-12-29T03:37:48;99929.56;;;8.83;86.35
23059;BME280;30585;51.502;7.218;2023-12-29T03:40:15;99928.88;;;8.81;86.56
23059;BME280;30585;51.502;7.218;2023-12-29T03:42:43;99925.16;;;8.82;85.92
23059;BME280;30585;51.502;7.218;2023-12-29T03:45:11;99925.78;;;8.85;85.92
23059;BME280;30585;51.502;7.218;2023-12-29T03:47:39;99916.00;;;8.84;85.70
23059;BME280;30585;51.502;7.218;2023-12-29T03:50:09;99913.94;;;8.88;85.43
23059;BME280;30585;51.502;7.218;2023-12-29T03:52:37;99908.31;;;8.91;85.22
23059;BME280;30585;51.502;7.218;2023-12-29T03:55:06;99919.94;;;8.91;85.52
23059;BME280;30585;51.502;7.218;2023-12-29T03:57:34;99907.88;;;8.97;84.70
23059;BME280;30585;51.502;7.218;2023-12-29T04:00:02;99904.81;;;9.02;84.42
23059;BME280;30585;51.502;7.218;2023-12-29T04:02:30;99911.06;;;9.02;83.87
23059;BME280;30585;51.502;7.218;2023-12-29T04:04:58;99906.28;;;9.06;83.73
23059;BME280;30585;51.502;7.218;2023-12-29T04:07:29;99908.97;;;9.06;83.96
23059;BME280;30585;51.502;7.218;2023-12-29T04:09:57;99922.19;;;9.09;84.11
23059;BME280;30585;51.502;7.218;2023-12-29T04:12:24;99905.69;;;9.13;83.22
23059;BME280;30585;51.502;7.218;2023-12-29T04:14:52;99902.13;;;9.13;83.52
23059;BME280;30585;51.502;7.218;2023-12-29T04:17:20;99914.72;;;9.12;83.94
23059;BME280;30585;51.502;7.218;2023-12-29T04:19:48;99912.03;;;9.12;83.39
23059;BME280;30585;51.502;7.218;2023-12-29T04:22:16;99894.19;;;9.11;83.52
23059;BME280;30585;51.502;7.218;2023-12-29T04:24:45;99895.66;;;9.15;82.70
23059;BME280;30585;51.502;7.218;2023-12-29T04:27:14;99905.81;;;9.12;83.09
23059;BME280;30585;51.502;7.218;2023-12-29T04:29:43;99910.72;;;9.18;82.39
23059;BME280;30585;51.502;7.218;2023-12-29T04:32:11;99896.50;;;9.16;82.83
23059;BME280;30585;51.502;7.218;2023-12-29T04:34:38;99895.19;;;9.21;82.15
23059;BME280;30585;51.502;7.218;2023-12-29T04:37:06;99899.47;;;9.24;81.79
23059;BME280;30585;51.502;7.218;2023-12-29T04:39:34;99896.03;;;9.22;82.35
23059;BME280;30585;51.502;7.218;2023-12-29T04:42:04;99896.03;;;9.22;82.22
23059;BME280;30585;51.502;7.218;2023-12-29T04:44:31;99892.84;;;9.28;82.26
23059;BME280;30585;51.502;7.218;2023-12-29T04:46:59;99917.94;;;9.29;81.34
23059;BME280;30585;51.502;7.218;2023-12-29T04:49:27;99923.09;;;9.32;81.89
23059;BME280;30585;51.502;7.218;2023-12-29T04:51:55;99921.38;;;9.31;81.97
23059;BME280;30585;51.502;7.218;2023-12-29T04:54:24;99910.38;;;9.34;81.58
23059;BME280;30585;51.502;7.218;2023-12-29T04:56:51;99921.41;;;9.42;81.02
23059;BME280;30585;51.502;7.218;2023-12-29T04:59:21;99930.34;;;9.42;81.48
23059;BME280;30585;51.502;7.218;2023-12-29T05:01:48;99935.59;;;9.44;81.03
23059;BME280;30585;51.502;7.218;2023-12-29T05:04:16;99948.94;;;9.45;80.79
23059;BME280;30585;51.502;7.218;2023-12-29T05:06:44;99918.22;;;9.48;80.33
23059;BME280;30585;51.502;7.218;2023-12-29T05:09:12;99855.75;;;9.09;80.82
23059;BME280;30585;51.502;7.218;2023-12-29T05:11:40;99924.72;;;9.45;81.15
23059;BME280;30585;51.502;7.218;2023-12-29T05:14:08;99911.47;;;9.42;80.94
23059;BME280;30585;51.502;7.218;2023-12-29T05:16:37;99919.69;;;9.41;80.95
23059;BME280;30585;51.502;7.218;2023-12-29T05:19:05;99921.63;;;9.39;81.35
23059;BME280;30585;51.502;7.218;2023-12-29T05:21:32;99927.25;;;9.36;81.22
23059;BME280;30585;51.502;7.218;2023-12-29T05:24:00;99927.03;;;9.39;80.78
23059;BME280;30585;51.502;7.218;2023-12-29T05:26:28;99933.63;;;9.35;80.78
23059;BME280;30585;51.502;7.218;2023-12-29T05:28:56;99892.47;;;9.10;79.94
23059;BME280;30585;51.502;7.218;2023-12-29T05:31:23;99927.75;;;9.41;80.50
23059;BME280;30585;51.502;7.218;2023-12-29T05:33:53;99937.56;;;9.42;79.96
23059;BME280;30585;51.502;7.218;2023-12-29T05:36:21;99926.91;;;9.40;80.39
23059;BME280;30585;51.502;7.218;2023-12-29T05:38:49;99924.56;;;9.36;80.14
23059;BME280;30585;51.502;7.218;2023-12-29T05:41:18;99951.13;;;9.40;79.97
23059;BME280;30585;51.502;7.218;2023-12-29T05:43:46;99935.59;;;9.44;79.79
23059;BME280;30585;51.502;7.218;2023-12-29T05:46:14;99941.72;;;9.46;79.13
23059;BME280;30585;51.502;7.218;2023-12-29T05:48:42;99920.75;;;9.49;78.84
23059;BME280;30585;51.502;7.218;2023-12-29T05:51:13;99917.72;;;9.54;78.33
23059;BME280;30585;51.502;7.218;2023-12-29T05:53:41;99926.31;;;9.48;79.11
23059;BME280;30585;51.502;7.218;2023-12-29T05:56:12;99916.00;;;9.53;78.28
23059;BME280;30585;51.502;7.218;2023-12-29T05:58:41;99927.50;;;9.55;78.21
23059;BME280;30585;51.502;7.218;2023-12-29T06:01:09;99889.19;;;9.18;78.49
23059;BME280;30585;51.502;7.218;2023-12-29T06:03:38;99951.50;;;9.58;77.75
23059;BME280;30585;51.502;7.218;2023-12-29T06:06:06;99940.13;;;9.54;78.48
23059;BME280;30585;51.502;7.218;2023-12-29T06:08:35;99945.38;;;9.56;78.03
23059;BME280;30585;51.502;7.218;2023-12-29T06:11:03;99942.69;;;9.56;77.66
23059;BME280;30585;51.502;7.218;2023-12-29T06:13:31;99953.47;;;9.56;77.14
23059;BME280;30585;51.502;7.218;2023-12-29T06:15:58;99950.31;;;9.62;77.62
23059;BME280;30585;51.502;7.218;2023-12-29T06:18:27;99906.31;;;9.28;77.13
23059;BME280;30585;51.502;7.218;2023-12-29T06:20:55;99939.66;;;9.60;77.18
23059;BME280;30585;51.502;7.218;2023-12-29T06:23:23;99960.09;;;9.63;76.65
23059;BME280;30585;51.502;7.218;2023-12-29T06:25:53;99956.31;;;9.66;76.61
23059;BME280;30585;51.502;7.218;2023-12-29T06:28:21;99950.91;;;9.66;76.85
23059;BME280;30585;51.502;7.218;2023-12-29T06:30:49;99947.59;;;9.62;77.01
23059;BME280;30585;51.502;7.218;2023-12-29T06:33:17;99956.03;;;9.57;77.31
23059;BME280;30585;51.502;7.218;2023-12-29T06:35:47;99954.94;;;9.60;77.42
23059;BME280;30585;51.502;7.218;2023-12-29T06:38:15;99953.22;;;9.59;77.56
23059;BME280;30585;51.502;7.218;2023-12-29T06:40:43;99949.44;;;9.62;77.54
23059;BME280;30585;51.502;7.218;2023-12-29T06:43:13;99951.50;;;9.58;77.47
23059;BME280;30585;51.502;7.218;2023-12-29T06:45:41;99940.50;;;9.61;76.61
23059;BME280;30585;51.502;7.218;2023-12-29T06:48:09;99948.81;;;9.58;77.10
23059;BME280;30585;51.502;7.218;2023-12-29T06:50:37;99951.50;;;9.58;77.29
23059;BME280;30585;51.502;7.218;2023-12-29T06:53:04;99952.50;;;9.57;77.60
23059;BME280;30585;51.502;7.218;2023-12-29T06:55:32;99935.84;;;9.52;77.08
23059;BME280;30585;51.502;7.218;2023-12-29T06:58:00;99941.34;;;9.50;77.49
23059;BME280;30585;51.502;7.218;2023-12-29T07:00:30;99949.28;;;9.52;77.14
23059;BME280;30585;51.502;7.218;2023-12-29T07:02:58;99958.75;;;9.57;76.55
23059;BME280;30585;51.502;7.218;2023-12-29T07:05:26;99937.53;;;9.53;76.93
23059;BME280;30585;51.502;7.218;2023-12-29T07:07:54;99943.16;;;9.50;76.86
23059;BME280;30585;51.502;7.218;2023-12-29T07:10:22;99918.69;;;9.53;77.58
23059;BME280;30585;51.502;7.218;2023-12-29T07:12:50;99927.16;;;9.48;77.58
23059;BME280;30585;51.502;7.218;2023-12-29T07:15:18;99927.16;;;9.48;77.44
23059;BME280;30585;51.502;7.218;2023-12-29T07:17:47;99901.06;;;9.38;77.33
23059;BME280;30585;51.502;7.218;2023-12-29T07:20:15;99933.88;;;9.54;77.81
23059;BME280;30585;51.502;7.218;2023-12-29T07:22:43;99936.22;;;9.47;77.94
23059;BME280;30585;51.502;7.218;2023-12-29T07:25:11;99921.50;;;9.40;79.25
23059;BME280;30585;51.502;7.218;2023-12-29T07:27:39;99931.50;;;9.27;81.78
23059;BME280;30585;51.502;7.218;2023-12-29T07:30:08;99935.19;;;9.15;82.09
23059;BME280;30585;51.502;7.218;2023-12-29T07:32:36;99924.75;;;9.10;82.84
23059;BME280;30585;51.502;7.218;2023-12-29T07:35:06;99927.78;;;8.95;84.31
23059;BME280;30585;51.502;7.218;2023-12-29T07:37:34;99934.84;;;8.84;85.10
23059;BME280;30585;51.502;7.218;2023-12-29T07:40:03;99939.03;;;8.88;84.40
23059;BME280;30585;51.502;7.218;2023-12-29T07:42:31;99929.31;;;8.75;85.90
23059;BME280;30585;51.502;7.218;2023-12-29T07:44:59;99935.91;;;8.71;86.81
23059;BME280;30585;51.502;7.218;2023-12-29T07:47:27;99917.19;;;8.69;87.26
23059;BME280;30585;51.502;7.218;2023-12-29T07:49:55;99925.47;;;8.66;87.28
23059;BME280;30585;51.502;7.218;2023-12-29T07:52:24;99904.69;;;8.57;88.61
23059;BME280;30585;51.502;7.218;2023-12-29T07:54:52;99912.59;;;8.58;88.17
23059;BME280;30585;51.502;7.218;2023-12-29T07:57:20;99907.22;;;8.58;88.41
23059;BME280;30585;51.502;7.218;2023-12-29T07:59:48;99896.00;;;8.53;88.24
23059;BME280;30585;51.502;7.218;2023-12-29T08:02:15;99900.84;;;8.48;88.76
23059;BME280;30585;51.502;7.218;2023-12-29T08:04:44;99911.38;;;8.51;88.78
23059;BME280;30585;51.502;7.218;2023-12-29T08:07:13;99904.81;;;8.55;88.36
23059;BME280;30585;51.502;7.218;2023-12-29T08:09:42;99908.22;;;8.57;87.95
23059;BME280;30585;51.502;7.218;2023-12-29T08:12:10;99914.81;;;8.53;88.54
23059;BME280;30585;51.502;7.218;2023-12-29T08:14:38;99919.84;;;8.58;88.01
23059;BME280;30585;51.502;7.218;2023-12-29T08:17:06;99913.09;;;8.52;88.15
23059;BME280;30585;51.502;7.218;2023-12-29T08:19:35;99931.31;;;8.60;88.17
23059;BME280;30585;51.502;7.218;2023-12-29T08:22:03;99944.66;;;8.62;87.66
23059;BME280;30585;51.502;7.218;2023-12-29T08:24:31;99930.13;;;8.64;87.71
23059;BME280;30585;51.502;7.218;2023-12-29T08:27:02;99941.75;;;8.65;87.93
23059;BME280;30585;51.502;7.218;2023-12-29T08:29:30;99923.78;;;8.65;87.61
23059;BME280;30585;51.502;7.218;2023-12-29T08:31:58;99926.56;;;8.64;87.39
23059;BME280;30585;51.502;7.218;2023-12-29T08:34:28;99922.91;;;8.65;87.76
23059;BME280;30585;51.502;7.218;2023-12-29T08:36:56;99923.53;;;8.68;87.51
23059;BME280;30585;51.502;7.218;2023-12-29T08:39:25;99921.94;;;8.66;88.24
23059;BME280;30585;51.502;7.218;2023-12-29T08:41:53;99940.13;;;8.62;88.33
23059;BME280;30585;51.502;7.218;2023-12-29T08:44:22;99921.72;;;8.69;87.65
23059;BME280;30585;51.502;7.218;2023-12-29T08:46:51;99921.94;;;8.66;88.45
23059;BME280;30585;51.502;7.218;2023-12-29T08:49:18;99920.84;;;8.68;88.31
23059;BME280;30585;51.502;7.218;2023-12-29T08:51:47;99916.09;;;8.72;87.90
23059;BME280;30585;51.502;7.218;2023-12-29T08:54:15;99918.69;;;8.73;88.12
23059;BME280;30585;51.502;7.218;2023-12-29T08:56:43;99920.50;;;8.73;88.37
23059;BME280;30585;51.502;7.218;2023-12-29T08:59:11;99916.72;;;8.75;88.14
23059;BME280;30585;51.502;7.218;2023-12-29T09:01:40;99911.00;;;8.80;88.14
23059;BME280;30585;51.502;7.218;2023-12-29T09:04:07;99846.56;;;8.43;86.89
23059;BME280;30585;51.502;7.218;2023-12-29T09:06:36;99932.78;;;8.88;87.05
23059;BME280;30585;51.502;7.218;2023-12-29T09:09:03;99937.81;;;8.93;86.85
23059;BME280;30585;51.502;7.218;2023-12-29T09:11:30;99948.47;;;8.94;86.34
23059;BME280;30585;51.502;7.218;2023-12-29T09:13:58;99949.44;;;8.93;86.82
23059;BME280;30585;51.502;7.218;2023-12-29T09:16:26;99939.31;;;8.97;86.51
23059;BME280;30585;51.502;7.218;2023-12-29T09:18:55;99933.81;;;8.98;86.66
23059;BME280;30585;51.502;7.218;2023-12-29T09:21:23;99927.56;;;8.98;86.84
23059;BME280;30585;51.502;7.218;2023-12-29T09:23:50;99941.66;;;9.01;86.65
23059;BME280;30585;51.502;7.218;2023-12-29T09:26:19;99926.34;;;9.02;86.47
23059;BME280;30585;51.502;7.218;2023-12-29T09:28:47;99911.19;;;9.01;86.34
23059;BME280;30585;51.502;7.218;2023-12-29T09:31:15;99895.16;;;8.99;86.95
23059;BME280;30585;51.502;7.218;2023-12-29T09:33:43;99911.53;;;8.96;87.46
23059;BME280;30585;51.502;7.218;2023-12-29T09:36:12;99908.50;;;9.01;87.07
23059;BME280;30585;51.502;7.218;2023-12-29T09:38:40;99919.25;;;9.01;87.12
23059;BME280;30585;51.502;7.218;2023-12-29T09:41:11;99923.53;;;9.03;86.47
23059;BME280;30585;51.502;7.218;2023-12-29T09:43:41;99934.31;;;9.03;87.05
23059;BME280;30585;51.502;7.218;2023-12-29T09:46:10;99941.16;;;9.07;86.58
23059;BME280;30585;51.502;7.218;2023-12-29T09:48:41;99946.66;;;9.06;86.87
23059;BME280;30585;51.502;7.218;2023-12-29T09:51:12;99955.13;;;9.12;86.46
23059;BME280;30585;51.502;7.218;2023-12-29T09:53:41;99959.28;;;9.16;85.72
23059;BME280;30585;51.502;7.218;2023-12-29T09:56:09;99943.88;;;9.18;86.16
23059;BME280;30585;51.502;7.218;2023-12-29T09:58:37;99969.66;;;9.10;87.17
23059;BME280;30585;51.502;7.218;2023-12-29T10:01:06;99976.13;;;9.07;87.84
23059;BME280;30585;51.502;7.218;2023-12-29T10:03:34;99947.03;;;9.01;87.66
23059;BME280;30585;51.502;7.218;2023-12-29T10:06:06;99945.31;;;9.00;88.46
23059;BME280;30585;51.502;7.218;2023-12-29T10:08:37;99945.53;;;8.97;88.31
23059;BME280;30585;51.502;7.218;2023-12-29T10:11:07;99928.31;;;9.00;88.18
23059;BME280;30585;51.502;7.218;2023-12-29T10:13:35;99905.16;;;8.62;88.97
23059;BME280;30585;51.502;7.218;2023-12-29T10:16:08;99940.28;;;8.96;88.97
23059;BME280;30585;51.502;7.218;2023-12-29T10:18:44;99933.41;;;8.91;89.41
23059;BME280;30585;51.502;7.218;2023-12-29T10:21:20;99944.28;;;8.90;89.60
23059;BME280;30585;51.502;7.218;2023-12-29T10:23:56;99942.56;;;8.89;89.99
23059;BME280;30585;51.502;7.218;2023-12-29T10:26:26;99956.88;;;8.89;89.46
23059;BME280;30585;51.502;7.218;2023-12-29T10:28:54;99914.81;;;8.88;90.41
23059;BME280;30585;51.502;7.218;2023-12-29T10:31:22;99922.88;;;8.88;90.63
23059;BME280;30585;51.502;7.218;2023-12-29T10:33:51;99935.69;;;8.85;91.04
23059;BME280;30585;51.502;7.218;2023-12-29T10:36:19;99946.13;;;8.89;90.41
23059;BME280;30585;51.502;7.218;2023-12-29T10:38:47;99923.09;;;8.85;90.48
23059;BME280;30585;51.502;7.218;2023-12-29T10:41:18;99911.38;;;8.86;90.81
23059;BME280;30585;51.502;7.218;2023-12-29T10:43:46;99943.44;;;8.89;90.63
23059;BME280;30585;51.502;7.218;2023-12-29T10:46:18;99952.25;;;8.91;90.43
23059;BME280;30585;51.502;7.218;2023-12-29T10:48:47;99952.13;;;8.93;90.72
23059;BME280;30585;51.502;7.218;2023-12-29T10:51:16;99948.34;;;8.96;90.81
23059;BME280;30585;51.502;7.218;2023-12-29T10:53:55;99946.41;;;8.98;90.59
23059;BME280;30585;51.502;7.218;2023-12-29T10:56:25;99941.38;;;9.04;90.64
23059;BME280;30585;51.502;7.218;2023-12-29T10:59:00;99924.03;;;9.08;90.40
23059;BME280;30585;51.502;7.218;2023-12-29T11:01:29;99944.47;;;9.11;90.68
23059;BME280;30585;51.502;7.218;2023-12-29T11:04:01;99924.53;;;9.13;90.48
23059;BME280;30585;51.502;7.218;2023-12-29T11:06:39;99941.06;;;9.20;90.41
23059;BME280;30585;51.502;7.218;2023-12-29T11:09:10;99934.09;;;9.29;89.76
23059;BME280;30585;51.502;7.218;2023-12-29T11:11:39;99875.44;;;8.99;89.36
23059;BME280;30585;51.502;7.218;2023-12-29T11:14:10;99933.50;;;9.36;88.62
23059;BME280;30585;51.502;7.218;2023-12-29T11:16:39;99939.38;;;9.41;87.14
23059;BME280;30585;51.502;7.218;2023-12-29T11:19:07;99934.38;;;9.48;86.33
23059;BME280;30585;51.502;7.218;2023-12-29T11:21:36;99936.06;;;9.49;86.98
23059;BME280;30585;51.502;7.218;2023-12-29T11:24:05;99948.94;;;9.56;86.54
23059;BME280;30585;51.502;7.218;2023-12-29T11:26:33;99939.66;;;9.60;86.94
23059;BME280;30585;51.502;7.218;2023-12-29T11:29:03;99940.50;;;9.61;87.41
23059;BME280;30585;51.502;7.218;2023-12-29T11:31:31;99958.25;;;9.64;87.70
23059;BME280;30585;51.502;7.218;2023-12-29T11:34:05;99932.91;;;9.66;88.18
23059;BME280;30585;51.502;7.218;2023-12-29T11:36:38;99941.22;;;9.74;87.77
23059;BME280;30585;51.502;7.218;2023-12-29T11:39:15;99932.78;;;9.79;87.70
23059;BME280;30585;51.502;7.218;2023-12-29T11:41:49;99924.56;;;9.80;87.51
23059;BME280;30585;51.502;7.218;2023-12-29T11:44:26;99936.81;;;9.84;87.60
23059;BME280;30585;51.502;7.218;2023-12-29T11:46:55;99928.75;;;9.84;87.02
23059;BME280;30585;51.502;7.218;2023-12-29T11:49:23;99929.22;;;9.89;86.85
23059;BME280;30585;51.502;7.218;2023-12-29T11:51:51;99924.81;;;9.88;86.82
23059;BME280;30585;51.502;7.218;2023-12-29T11:54:23;99922.38;;;9.85;86.70
23059;BME280;30585;51.502;7.218;2023-12-29T11:56:52;99908.53;;;9.90;86.61
23059;BME280;30585;51.502;7.218;2023-12-29T11:59:21;99921.88;;;9.91;86.46
23059;BME280;30585;51.502;7.218;2023-12-29T12:01:52;99908.16;;;9.83;85.99
23059;BME280;30585;51.502;7.218;2023-12-29T12:04:37;99917.44;;;10.02;85.42
23059;BME280;30585;51.502;7.218;2023-12-29T12:07:09;99906.91;;;9.99;85.43
23059;BME280;30585;51.502;7.218;2023-12-29T12:09:37;99919.53;;;9.98;85.04
23059;BME280;30585;51.502;7.218;2023-12-29T12:12:05;99912.06;;;10.02;84.89
23059;BME280;30585;51.502;7.218;2023-12-29T12:14:48;99910.94;;;10.04;85.15
23059;BME280;30585;51.502;7.218;2023-12-29T12:17:31;99903.59;;;10.06;84.19
23059;BME280;30585;51.502;7.218;2023-12-29T12:20:06;99899.91;;;10.07;84.25
23059;BME280;30585;51.502;7.218;2023-12-29T12:22:35;99892.44;;;10.11;84.24
23059;BME280;30585;51.502;7.218;2023-12-29T12:25:05;99905.06;;;10.10;84.27
23059;BME280;30585;51.502;7.218;2023-12-29T12:27:37;99850.47;;;9.75;84.79
23059;BME280;30585;51.502;7.218;2023-12-29T12:30:07;99905.69;;;10.03;85.44
23059;BME280;30585;51.502;7.218;2023-12-29T12:32:38;99902.50;;;9.98;85.22
23059;BME280;30585;51.502;7.218;2023-12-29T12:35:13;99919.66;;;9.97;85.71
23059;BME280;30585;51.502;7.218;2023-12-29T12:37:46;99904.72;;;9.92;86.01
23059;BME280;30585;51.502;7.218;2023-12-29T12:40:24;99887.09;;;9.88;86.94
23059;BME280;30585;51.502;7.218;2023-12-29T12:42:53;99886.22;;;9.77;86.08
23059;BME280;30585;51.502;7.218;2023-12-29T12:45:21;99910.38;;;9.78;87.22
23059;BME280;30585;51.502;7.218;2023-12-29T12:47:53;99911.84;;;9.82;87.53
23059;BME280;30585;51.502;7.218;2023-12-29T12:50:22;99913.19;;;9.77;87.40
23059;BME280;30585;51.502;7.218;2023-12-29T12:52:50;99899.38;;;9.70;87.20
23059;BME280;30585;51.502;7.218;2023-12-29T12:55:18;99903.78;;;9.71;87.76
23059;BME280;30585;51.502;7.218;2023-12-29T12:57:47;99900.69;;;9.76;87.36
23059;BME280;30585;51.502;7.218;2023-12-29T13:00:15;99902.31;;;9.67;87.72
23059;BME280;30585;51.502;7.218;2023-12-29T13:02:44;99901.31;;;9.57;88.32
23059;BME280;30585;51.502;7.218;2023-12-29T13:05:15;99908.66;;;9.55;89.37
23059;BME280;30585;51.502;7.218;2023-12-29T13:07:44;99906.84;;;9.44;90.10
23059;BME280;30585;51.502;7.218;2023-12-29T13:10:12;99901.19;;;9.36;91.14
23059;BME280;30585;51.502;7.218;2023-12-29T13:12:40;99891.50;;;9.34;91.12
23059;BME280;30585;51.502;7.218;2023-12-29T13:15:19;99894.81;;;9.37;91.06
23059;BME280;30585;51.502;7.218;2023-12-29T13:17:50;99906.94;;;9.32;91.32
23059;BME280;30585;51.502;7.218;2023-12-29T13:20:19;99888.81;;;9.34;91.41